Almo, Idaho
Current Conditions -  °F | °C
As of 2:53 PM on Tuesday 21 Oct 2014 (Local Time) from KBYI Reporting Station
Light Rain Light Rain  
Wind Chill: 11°   Ceiling: 4600
Heat Index: 11°   Visibility: 10mi
Dew Point:   Wind: 17mph
Humidity: 54%   Direction: 260°W
Pressure: 30.04"   Gusts: 29mph
Location:  42.1°N, 113.64°W
Report Text: KBYI 212053Z AUTO 26015G25KT 10SM -RA FEW034 BKN046 11/02 A3004 RMK AO2 SLP148 P0000 60000 T01110022 53003
Loading
Personal Weather Stations






























Interactive Weather Map
Tropical Storm Tracking
New forecast layout! Learn more

10-Day Weather Forecast

Advertisements
Track Severe Weather on mobile